sensor_id;sensor_type;location;lat;lon;timestamp;temperature;humidity
80290;SHT30;69592;44.804;-0.550;2024-02-23T00:00:29;8.24;89.03
80290;SHT30;69592;44.804;-0.550;2024-02-23T00:02:54;8.22;88.98
80290;SHT30;69592;44.804;-0.550;2024-02-23T00:05:22;8.14;89.01
80290;SHT30;69592;44.804;-0.550;2024-02-23T00:07:47;8.17;89.04
80290;SHT30;69592;44.804;-0.550;2024-02-23T00:10:13;8.14;89.05
80290;SHT30;69592;44.804;-0.550;2024-02-23T00:12:39;8.21;89.01
80290;SHT30;69592;44.804;-0.550;2024-02-23T00:15:05;8.17;88.92
80290;SHT30;69592;44.804;-0.550;2024-02-23T00:17:30;8.14;88.89
80290;SHT30;69592;44.804;-0.550;2024-02-23T00:19:55;8.20;88.85
80290;SHT30;69592;44.804;-0.550;2024-02-23T00:22:21;8.18;88.73
80290;SHT30;69592;44.804;-0.550;2024-02-23T00:24:46;8.24;88.85
80290;SHT30;69592;44.804;-0.550;2024-02-23T00:27:12;8.21;88.58
80290;SHT30;69592;44.804;-0.550;2024-02-23T00:29:37;8.31;88.67
80290;SHT30;69592;44.804;-0.550;2024-02-23T00:32:03;8.29;88.63
80290;SHT30;69592;44.804;-0.550;2024-02-23T00:34:29;8.34;88.53
80290;SHT30;69592;44.804;-0.550;2024-02-23T00:36:56;8.32;88.45
80290;SHT30;69592;44.804;-0.550;2024-02-23T00:39:22;8.35;88.46
80290;SHT30;69592;44.804;-0.550;2024-02-23T00:42:04;8.31;88.44
80290;SHT30;69592;44.804;-0.550;2024-02-23T00:44:31;8.29;88.60
80290;SHT30;69592;44.804;-0.550;2024-02-23T00:47:11;8.32;88.65
80290;SHT30;69592;44.804;-0.550;2024-02-23T00:49:36;8.31;88.58
80290;SHT30;69592;44.804;-0.550;2024-02-23T00:52:04;8.31;88.55
80290;SHT30;69592;44.804;-0.550;2024-02-23T00:54:30;8.22;88.45
80290;SHT30;69592;44.804;-0.550;2024-02-23T00:56:56;8.26;88.53
80290;SHT30;69592;44.804;-0.550;2024-02-23T00:59:29;8.28;88.38
80290;SHT30;69592;44.804;-0.550;2024-02-23T01:01:55;8.20;88.70
80290;SHT30;69592;44.804;-0.550;2024-02-23T01:04:21;8.26;88.86
80290;SHT30;69592;44.804;-0.550;2024-02-23T01:06:46;8.36;88.82
80290;SHT30;69592;44.804;-0.550;2024-02-23T01:09:12;8.41;88.64
80290;SHT30;69592;44.804;-0.550;2024-02-23T01:11:37;8.35;88.90
80290;SHT30;69592;44.804;-0.550;2024-02-23T01:14:03;8.36;88.91
80290;SHT30;69592;44.804;-0.550;2024-02-23T01:16:28;8.29;88.66
80290;SHT30;69592;44.804;-0.550;2024-02-23T01:18:54;8.25;89.05
80290;SHT30;69592;44.804;-0.550;2024-02-23T01:21:19;8.14;89.10
80290;SHT30;69592;44.804;-0.550;2024-02-23T01:23:45;7.95;89.00
80290;SHT30;69592;44.804;-0.550;2024-02-23T01:26:10;7.99;89.33
80290;SHT30;69592;44.804;-0.550;2024-02-23T01:28:36;8.05;89.04
80290;SHT30;69592;44.804;-0.550;2024-02-23T01:31:01;8.09;89.02
80290;SHT30;69592;44.804;-0.550;2024-02-23T01:33:27;7.98;89.08
80290;SHT30;69592;44.804;-0.550;2024-02-23T01:35:52;8.01;89.25
80290;SHT30;69592;44.804;-0.550;2024-02-23T01:38:17;8.08;89.33
80290;SHT30;69592;44.804;-0.550;2024-02-23T01:40:53;8.14;89.22
80290;SHT30;69592;44.804;-0.550;2024-02-23T01:43:18;8.31;89.11
80290;SHT30;69592;44.804;-0.550;2024-02-23T01:45:50;8.39;89.00
80290;SHT30;69592;44.804;-0.550;2024-02-23T01:48:47;8.39;89.17
80290;SHT30;69592;44.804;-0.550;2024-02-23T01:51:15;8.36;89.15
80290;SHT30;69592;44.804;-0.550;2024-02-23T01:54:01;8.42;88.97
80290;SHT30;69592;44.804;-0.550;2024-02-23T01:56:26;8.53;88.86
80290;SHT30;69592;44.804;-0.550;2024-02-23T01:58:55;8.60;89.03
80290;SHT30;69592;44.804;-0.550;2024-02-23T02:01:20;8.69;88.80
80290;SHT30;69592;44.804;-0.550;2024-02-23T02:03:46;8.77;88.73
80290;SHT30;69592;44.804;-0.550;2024-02-23T02:06:11;8.83;88.86
80290;SHT30;69592;44.804;-0.550;2024-02-23T02:08:38;8.89;88.77
80290;SHT30;69592;44.804;-0.550;2024-02-23T02:11:03;8.93;88.87
80290;SHT30;69592;44.804;-0.550;2024-02-23T02:13:29;8.91;88.85
80290;SHT30;69592;44.804;-0.550;2024-02-23T02:15:55;9.04;88.81
80290;SHT30;69592;44.804;-0.550;2024-02-23T02:18:20;9.13;88.82
80290;SHT30;69592;44.804;-0.550;2024-02-23T02:20:53;9.16;88.91
80290;SHT30;69592;44.804;-0.550;2024-02-23T02:23:19;9.09;88.73
80290;SHT30;69592;44.804;-0.550;2024-02-23T02:25:44;9.16;88.55
80290;SHT30;69592;44.804;-0.550;2024-02-23T02:28:11;9.21;88.50
80290;SHT30;69592;44.804;-0.550;2024-02-23T02:30:37;9.13;88.69
80290;SHT30;69592;44.804;-0.550;2024-02-23T02:33:03;9.19;88.50
80290;SHT30;69592;44.804;-0.550;2024-02-23T02:35:28;9.16;88.29
80290;SHT30;69592;44.804;-0.550;2024-02-23T02:37:54;9.23;87.83
80290;SHT30;69592;44.804;-0.550;2024-02-23T02:40:19;9.20;88.25
80290;SHT30;69592;44.804;-0.550;2024-02-23T02:42:45;9.23;88.74
80290;SHT30;69592;44.804;-0.550;2024-02-23T02:45:10;9.17;88.98
80290;SHT30;69592;44.804;-0.550;2024-02-23T02:47:39;9.13;89.13
80290;SHT30;69592;44.804;-0.550;2024-02-23T02:50:06;9.16;89.23
80290;SHT30;69592;44.804;-0.550;2024-02-23T02:52:31;9.26;89.14
80290;SHT30;69592;44.804;-0.550;2024-02-23T02:54:57;9.30;88.93
80290;SHT30;69592;44.804;-0.550;2024-02-23T02:57:26;9.38;88.67
80290;SHT30;69592;44.804;-0.550;2024-02-23T02:59:51;9.30;88.80
80290;SHT30;69592;44.804;-0.550;2024-02-23T03:02:17;9.06;89.03
80290;SHT30;69592;44.804;-0.550;2024-02-23T03:04:49;9.19;89.15
80290;SHT30;69592;44.804;-0.550;2024-02-23T03:07:16;9.13;89.15
80290;SHT30;69592;44.804;-0.550;2024-02-23T03:09:41;9.03;89.28
80290;SHT30;69592;44.804;-0.550;2024-02-23T03:12:07;9.07;89.10
80290;SHT30;69592;44.804;-0.550;2024-02-23T03:14:33;9.16;89.00
80290;SHT30;69592;44.804;-0.550;2024-02-23T03:16:59;9.16;88.95
80290;SHT30;69592;44.804;-0.550;2024-02-23T03:19:25;9.11;89.13
80290;SHT30;69592;44.804;-0.550;2024-02-23T03:21:51;9.03;89.01
80290;SHT30;69592;44.804;-0.550;2024-02-23T03:24:17;8.97;89.01
80290;SHT30;69592;44.804;-0.550;2024-02-23T03:26:42;8.94;88.85
80290;SHT30;69592;44.804;-0.550;2024-02-23T03:29:09;8.94;88.73
80290;SHT30;69592;44.804;-0.550;2024-02-23T03:31:34;8.84;88.74
80290;SHT30;69592;44.804;-0.550;2024-02-23T03:34:00;8.84;88.88
80290;SHT30;69592;44.804;-0.550;2024-02-23T03:36:25;8.93;88.53
80290;SHT30;69592;44.804;-0.550;2024-02-23T03:38:51;8.89;88.63
80290;SHT30;69592;44.804;-0.550;2024-02-23T03:41:17;8.89;88.94
80290;SHT30;69592;44.804;-0.550;2024-02-23T03:43:42;8.90;88.72
80290;SHT30;69592;44.804;-0.550;2024-02-23T03:46:11;9.01;88.80
80290;SHT30;69592;44.804;-0.550;2024-02-23T03:48:37;9.01;88.99
80290;SHT30;69592;44.804;-0.550;2024-02-23T03:51:04;9.09;89.01
80290;SHT30;69592;44.804;-0.550;2024-02-23T03:53:30;9.09;89.00
80290;SHT30;69592;44.804;-0.550;2024-02-23T03:55:56;9.13;88.88
80290;SHT30;69592;44.804;-0.550;2024-02-23T03:58:22;9.03;88.89
80290;SHT30;69592;44.804;-0.550;2024-02-23T04:00:47;9.09;88.96
80290;SHT30;69592;44.804;-0.550;2024-02-23T04:03:12;9.00;88.96
80290;SHT30;69592;44.804;-0.550;2024-02-23T04:05:38;8.99;89.24
80290;SHT30;69592;44.804;-0.550;2024-02-23T04:08:03;8.94;89.28
80290;SHT30;69592;44.804;-0.550;2024-02-23T04:10:29;8.81;89.45
80290;SHT30;69592;44.804;-0.550;2024-02-23T04:12:54;8.87;89.56
80290;SHT30;69592;44.804;-0.550;2024-02-23T04:15:20;8.87;89.50
80290;SHT30;69592;44.804;-0.550;2024-02-23T04:17:46;8.94;89.43
80290;SHT30;69592;44.804;-0.550;2024-02-23T04:20:11;9.04;89.25
80290;SHT30;69592;44.804;-0.550;2024-02-23T04:22:37;9.07;88.97
80290;SHT30;69592;44.804;-0.550;2024-02-23T04:25:04;9.13;88.93
80290;SHT30;69592;44.804;-0.550;2024-02-23T04:27:30;9.10;88.70
80290;SHT30;69592;44.804;-0.550;2024-02-23T04:29:55;9.19;88.59
80290;SHT30;69592;44.804;-0.550;2024-02-23T04:32:21;9.19;88.56
80290;SHT30;69592;44.804;-0.550;2024-02-23T04:34:46;9.27;88.40
80290;SHT30;69592;44.804;-0.550;2024-02-23T04:37:12;9.28;88.48
80290;SHT30;69592;44.804;-0.550;2024-02-23T04:39:37;9.32;88.42
80290;SHT30;69592;44.804;-0.550;2024-02-23T04:42:04;9.34;88.37
80290;SHT30;69592;44.804;-0.550;2024-02-23T04:44:29;9.32;88.39
80290;SHT30;69592;44.804;-0.550;2024-02-23T04:46:55;9.26;88.50
80290;SHT30;69592;44.804;-0.550;2024-02-23T04:49:20;9.28;88.62
80290;SHT30;69592;44.804;-0.550;2024-02-23T04:51:46;9.37;88.63
80290;SHT30;69592;44.804;-0.550;2024-02-23T04:54:11;9.37;88.57
80290;SHT30;69592;44.804;-0.550;2024-02-23T04:56:36;9.41;88.44
80290;SHT30;69592;44.804;-0.550;2024-02-23T04:59:02;9.41;88.29
80290;SHT30;69592;44.804;-0.550;2024-02-23T05:01:27;9.28;88.57
80290;SHT30;69592;44.804;-0.550;2024-02-23T05:03:52;9.32;88.60
80290;SHT30;69592;44.804;-0.550;2024-02-23T05:06:18;9.27;88.65
80290;SHT30;69592;44.804;-0.550;2024-02-23T05:08:43;9.24;88.73
80290;SHT30;69592;44.804;-0.550;2024-02-23T05:11:09;9.38;88.75
80290;SHT30;69592;44.804;-0.550;2024-02-23T05:13:35;9.28;88.68
80290;SHT30;69592;44.804;-0.550;2024-02-23T05:16:02;9.30;88.83
80290;SHT30;69592;44.804;-0.550;2024-02-23T05:18:27;9.26;89.02
80290;SHT30;69592;44.804;-0.550;2024-02-23T05:20:53;9.19;88.95
80290;SHT30;69592;44.804;-0.550;2024-02-23T05:23:18;9.20;89.00
80290;SHT30;69592;44.804;-0.550;2024-02-23T05:25:43;9.21;88.89
80290;SHT30;69592;44.804;-0.550;2024-02-23T05:28:09;9.13;88.90
80290;SHT30;69592;44.804;-0.550;2024-02-23T05:30:34;9.10;88.92
80290;SHT30;69592;44.804;-0.550;2024-02-23T05:32:59;9.16;88.96
80290;SHT30;69592;44.804;-0.550;2024-02-23T05:35:28;9.13;88.85
80290;SHT30;69592;44.804;-0.550;2024-02-23T05:37:54;9.11;88.95
80290;SHT30;69592;44.804;-0.550;2024-02-23T05:40:20;9.00;88.94
80290;SHT30;69592;44.804;-0.550;2024-02-23T05:42:46;9.06;89.11
80290;SHT30;69592;44.804;-0.550;2024-02-23T05:45:11;9.03;88.97
80290;SHT30;69592;44.804;-0.550;2024-02-23T05:47:38;8.86;88.86
80290;SHT30;69592;44.804;-0.550;2024-02-23T05:50:04;8.87;89.15
80290;SHT30;69592;44.804;-0.550;2024-02-23T05:52:31;8.80;89.12
80290;SHT30;69592;44.804;-0.550;2024-02-23T05:54:57;8.80;89.28
80290;SHT30;69592;44.804;-0.550;2024-02-23T05:57:22;8.66;88.99
80290;SHT30;69592;44.804;-0.550;2024-02-23T05:59:48;8.58;89.13
80290;SHT30;69592;44.804;-0.550;2024-02-23T06:02:13;8.60;89.13
80290;SHT30;69592;44.804;-0.550;2024-02-23T06:04:40;8.49;89.17
80290;SHT30;69592;44.804;-0.550;2024-02-23T06:07:06;8.36;89.01
80290;SHT30;69592;44.804;-0.550;2024-02-23T06:09:31;8.42;88.99
80290;SHT30;69592;44.804;-0.550;2024-02-23T06:11:56;8.42;89.10
80290;SHT30;69592;44.804;-0.550;2024-02-23T06:14:22;8.50;88.99
80290;SHT30;69592;44.804;-0.550;2024-02-23T06:16:49;8.49;89.00
80290;SHT30;69592;44.804;-0.550;2024-02-23T06:19:15;8.52;89.10
80290;SHT30;69592;44.804;-0.550;2024-02-23T06:21:40;8.55;89.07
80290;SHT30;69592;44.804;-0.550;2024-02-23T06:24:06;8.60;89.12
80290;SHT30;69592;44.804;-0.550;2024-02-23T06:26:33;8.62;89.12
80290;SHT30;69592;44.804;-0.550;2024-02-23T06:28:59;8.66;88.99
80290;SHT30;69592;44.804;-0.550;2024-02-23T06:31:24;8.56;88.96
80290;SHT30;69592;44.804;-0.550;2024-02-23T06:33:50;8.63;89.07
80290;SHT30;69592;44.804;-0.550;2024-02-23T06:36:17;8.62;88.98
80290;SHT30;69592;44.804;-0.550;2024-02-23T06:38:44;8.63;89.01
80290;SHT30;69592;44.804;-0.550;2024-02-23T06:41:10;8.70;89.06
80290;SHT30;69592;44.804;-0.550;2024-02-23T06:43:36;8.73;88.89
80290;SHT30;69592;44.804;-0.550;2024-02-23T06:46:08;8.53;88.98
80290;SHT30;69592;44.804;-0.550;2024-02-23T06:48:34;8.58;89.08
80290;SHT30;69592;44.804;-0.550;2024-02-23T06:50:59;8.59;88.96
80290;SHT30;69592;44.804;-0.550;2024-02-23T06:53:25;8.46;89.07
80290;SHT30;69592;44.804;-0.550;2024-02-23T06:55:50;8.49;89.12
80290;SHT30;69592;44.804;-0.550;2024-02-23T06:58:16;8.58;89.05
80290;SHT30;69592;44.804;-0.550;2024-02-23T07:00:43;8.48;89.05
80290;SHT30;69592;44.804;-0.550;2024-02-23T07:03:08;8.35;89.27
80290;SHT30;69592;44.804;-0.550;2024-02-23T07:05:34;8.38;89.25
80290;SHT30;69592;44.804;-0.550;2024-02-23T07:08:01;8.42;89.22
80290;SHT30;69592;44.804;-0.550;2024-02-23T07:10:27;8.45;89.17
80290;SHT30;69592;44.804;-0.550;2024-02-23T07:12:52;8.45;89.17
80290;SHT30;69592;44.804;-0.550;2024-02-23T07:15:23;8.42;89.22
80290;SHT30;69592;44.804;-0.550;2024-02-23T07:17:49;8.36;89.27
80290;SHT30;69592;44.804;-0.550;2024-02-23T07:20:15;8.31;89.34
80290;SHT30;69592;44.804;-0.550;2024-02-23T07:22:45;8.34;89.46
80290;SHT30;69592;44.804;-0.550;2024-02-23T07:25:11;8.32;89.53
80290;SHT30;69592;44.804;-0.550;2024-02-23T07:27:37;8.29;89.50
80290;SHT30;69592;44.804;-0.550;2024-02-23T07:30:02;8.15;89.59
80290;SHT30;69592;44.804;-0.550;2024-02-23T07:32:29;8.14;89.76
80290;SHT30;69592;44.804;-0.550;2024-02-23T07:34:55;8.34;89.50
80290;SHT30;69592;44.804;-0.550;2024-02-23T07:37:21;8.44;89.56
80290;SHT30;69592;44.804;-0.550;2024-02-23T07:39:46;8.48;89.25
80290;SHT30;69592;44.804;-0.550;2024-02-23T07:42:12;8.46;89.30
80290;SHT30;69592;44.804;-0.550;2024-02-23T07:44:39;8.56;89.24
80290;SHT30;69592;44.804;-0.550;2024-02-23T07:47:05;8.72;89.02
80290;SHT30;69592;44.804;-0.550;2024-02-23T07:49:30;8.79;89.11
80290;SHT30;69592;44.804;-0.550;2024-02-23T07:51:56;8.94;88.96
80290;SHT30;69592;44.804;-0.550;2024-02-23T07:54:22;8.99;88.96
80290;SHT30;69592;44.804;-0.550;2024-02-23T07:56:47;8.90;88.94
80290;SHT30;69592;44.804;-0.550;2024-02-23T07:59:12;9.03;88.92
80290;SHT30;69592;44.804;-0.550;2024-02-23T08:01:38;8.99;89.13
80290;SHT30;69592;44.804;-0.550;2024-02-23T08:04:05;9.03;88.94
80290;SHT30;69592;44.804;-0.550;2024-02-23T08:06:30;9.03;88.97
80290;SHT30;69592;44.804;-0.550;2024-02-23T08:08:56;9.01;88.55
80290;SHT30;69592;44.804;-0.550;2024-02-23T08:11:21;8.79;88.69
80290;SHT30;69592;44.804;-0.550;2024-02-23T08:13:46;8.42;89.71
80290;SHT30;69592;44.804;-0.550;2024-02-23T08:16:12;7.91;90.43
80290;SHT30;69592;44.804;-0.550;2024-02-23T08:18:37;7.71;91.27
80290;SHT30;69592;44.804;-0.550;2024-02-23T08:21:03;7.81;90.80
80290;SHT30;69592;44.804;-0.550;2024-02-23T08:23:30;8.02;91.24
80290;SHT30;69592;44.804;-0.550;2024-02-23T08:25:56;8.15;90.40
80290;SHT30;69592;44.804;-0.550;2024-02-23T08:28:25;8.22;89.78
80290;SHT30;69592;44.804;-0.550;2024-02-23T08:30:51;8.46;90.64
80290;SHT30;69592;44.804;-0.550;2024-02-23T08:33:17;8.62;90.20
80290;SHT30;69592;44.804;-0.550;2024-02-23T08:35:42;8.66;89.40
80290;SHT30;69592;44.804;-0.550;2024-02-23T08:38:12;8.87;88.71
80290;SHT30;69592;44.804;-0.550;2024-02-23T08:40:38;9.19;88.80
80290;SHT30;69592;44.804;-0.550;2024-02-23T08:43:04;9.61;88.71
80290;SHT30;69592;44.804;-0.550;2024-02-23T08:45:30;9.86;88.42
80290;SHT30;69592;44.804;-0.550;2024-02-23T08:47:55;10.03;87.98
80290;SHT30;69592;44.804;-0.550;2024-02-23T08:50:20;10.26;88.26
80290;SHT30;69592;44.804;-0.550;2024-02-23T08:52:46;10.40;88.21
80290;SHT30;69592;44.804;-0.550;2024-02-23T08:55:11;10.56;88.43
80290;SHT30;69592;44.804;-0.550;2024-02-23T08:57:37;10.49;88.00
80290;SHT30;69592;44.804;-0.550;2024-02-23T09:00:03;10.61;88.12
80290;SHT30;69592;44.804;-0.550;2024-02-23T09:02:30;10.70;88.40
80290;SHT30;69592;44.804;-0.550;2024-02-23T09:04:56;10.81;88.32
80290;SHT30;69592;44.804;-0.550;2024-02-23T09:07:21;10.91;87.82
80290;SHT30;69592;44.804;-0.550;2024-02-23T09:09:47;10.36;87.68
80290;SHT30;69592;44.804;-0.550;2024-02-23T09:12:14;10.09;89.08
80290;SHT30;69592;44.804;-0.550;2024-02-23T09:14:42;9.84;89.13
80290;SHT30;69592;44.804;-0.550;2024-02-23T09:17:08;9.86;89.46
80290;SHT30;69592;44.804;-0.550;2024-02-23T09:19:35;9.77;88.43
80290;SHT30;69592;44.804;-0.550;2024-02-23T09:22:00;9.71;89.04
80290;SHT30;69592;44.804;-0.550;2024-02-23T09:24:27;9.81;89.01
80290;SHT30;69592;44.804;-0.550;2024-02-23T09:26:52;9.79;89.09
80290;SHT30;69592;44.804;-0.550;2024-02-23T09:29:18;9.81;89.04
80290;SHT30;69592;44.804;-0.550;2024-02-23T09:31:43;10.01;89.36
80290;SHT30;69592;44.804;-0.550;2024-02-23T09:34:08;10.09;89.23
80290;SHT30;69592;44.804;-0.550;2024-02-23T09:36:34;10.33;88.96
80290;SHT30;69592;44.804;-0.550;2024-02-23T09:38:59;10.64;89.05
80290;SHT30;69592;44.804;-0.550;2024-02-23T09:41:33;10.98;88.68
80290;SHT30;69592;44.804;-0.550;2024-02-23T09:44:01;11.15;88.62
80290;SHT30;69592;44.804;-0.550;2024-02-23T09:46:27;11.11;89.01
80290;SHT30;69592;44.804;-0.550;2024-02-23T09:48:53;10.77;89.05
80290;SHT30;69592;44.804;-0.550;2024-02-23T09:51:19;10.68;89.02
80290;SHT30;69592;44.804;-0.550;2024-02-23T09:53:49;10.60;89.38
80290;SHT30;69592;44.804;-0.550;2024-02-23T09:56:15;10.47;89.66
80290;SHT30;69592;44.804;-0.550;2024-02-23T09:58:43;10.28;89.61
80290;SHT30;69592;44.804;-0.550;2024-02-23T10:01:10;10.28;89.40
80290;SHT30;69592;44.804;-0.550;2024-02-23T10:03:37;10.37;89.69
80290;SHT30;69592;44.804;-0.550;2024-02-23T10:06:04;10.33;88.82
80290;SHT30;69592;44.804;-0.550;2024-02-23T10:08:30;10.43;89.37
80290;SHT30;69592;44.804;-0.550;2024-02-23T10:10:56;10.37;89.09
80290;SHT30;69592;44.804;-0.550;2024-02-23T10:13:23;10.42;89.23
80290;SHT30;69592;44.804;-0.550;2024-02-23T10:15:52;10.40;89.45
80290;SHT30;69592;44.804;-0.550;2024-02-23T10:18:18;10.67;89.48
80290;SHT30;69592;44.804;-0.550;2024-02-23T10:20:44;10.98;89.42
80290;SHT30;69592;44.804;-0.550;2024-02-23T10:23:10;11.28;89.61
80290;SHT30;69592;44.804;-0.550;2024-02-23T10:25:36;11.59;89.32
80290;SHT30;69592;44.804;-0.550;2024-02-23T10:28:05;11.89;88.59
80290;SHT30;69592;44.804;-0.550;2024-02-23T10:30:32;12.24;88.99
80290;SHT30;69592;44.804;-0.550;2024-02-23T10:32:58;12.43;88.38
80290;SHT30;69592;44.804;-0.550;2024-02-23T10:35:25;12.75;87.02
80290;SHT30;69592;44.804;-0.550;2024-02-23T10:37:51;13.02;85.94
80290;SHT30;69592;44.804;-0.550;2024-02-23T10:40:19;13.16;85.41
80290;SHT30;69592;44.804;-0.550;2024-02-23T10:42:46;13.35;85.64
80290;SHT30;69592;44.804;-0.550;2024-02-23T10:45:20;12.69;86.82
80290;SHT30;69592;44.804;-0.550;2024-02-23T10:47:47;12.17;88.06
80290;SHT30;69592;44.804;-0.550;2024-02-23T10:50:14;11.86;89.26
80290;SHT30;69592;44.804;-0.550;2024-02-23T10:52:42;11.69;89.45
80290;SHT30;69592;44.804;-0.550;2024-02-23T10:55:08;11.55;87.38
80290;SHT30;69592;44.804;-0.550;2024-02-23T10:57:37;11.45;87.92
80290;SHT30;69592;44.804;-0.550;2024-02-23T11:00:04;11.12;88.58
80290;SHT30;69592;44.804;-0.550;2024-02-23T11:02:38;11.18;87.94
80290;SHT30;69592;44.804;-0.550;2024-02-23T11:05:05;11.28;88.35
80290;SHT30;69592;44.804;-0.550;2024-02-23T11:07:38;11.29;88.27
80290;SHT30;69592;44.804;-0.550;2024-02-23T11:10:04;11.29;88.29
80290;SHT30;69592;44.804;-0.550;2024-02-23T11:12:29;11.18;88.48
80290;SHT30;69592;44.804;-0.550;2024-02-23T11:14:59;10.70;89.34
80290;SHT30;69592;44.804;-0.550;2024-02-23T11:17:30;10.59;90.25
80290;SHT30;69592;44.804;-0.550;2024-02-23T11:19:56;10.49;89.22
80290;SHT30;69592;44.804;-0.550;2024-02-23T11:22:33;10.09;90.35
80290;SHT30;69592;44.804;-0.550;2024-02-23T11:25:07;10.33;90.01
80290;SHT30;69592;44.804;-0.550;2024-02-23T11:27:37;10.54;89.77
80290;SHT30;69592;44.804;-0.550;2024-02-23T11:30:09;10.70;89.21
80290;SHT30;69592;44.804;-0.550;2024-02-23T11:32:40;10.78;88.42
80290;SHT30;69592;44.804;-0.550;2024-02-23T11:35:07;10.85;87.62
80290;SHT30;69592;44.804;-0.550;2024-02-23T11:37:33;10.85;87.19
80290;SHT30;69592;44.804;-0.550;2024-02-23T11:40:09;10.97;87.35
80290;SHT30;69592;44.804;-0.550;2024-02-23T11:42:35;11.11;86.42
80290;SHT30;69592;44.804;-0.550;2024-02-23T11:45:01;11.36;85.76
80290;SHT30;69592;44.804;-0.550;2024-02-23T11:47:26;11.52;85.75
80290;SHT30;69592;44.804;-0.550;2024-02-23T11:49:52;11.28;86.04
80290;SHT30;69592;44.804;-0.550;2024-02-23T11:52:17;10.01;88.84
80290;SHT30;69592;44.804;-0.550;2024-02-23T11:54:43;8.49;98.30
80290;SHT30;69592;44.804;-0.550;2024-02-23T11:57:08;8.09;98.51
80290;SHT30;69592;44.804;-0.550;2024-02-23T11:59:34;8.11;98.71
80290;SHT30;69592;44.804;-0.550;2024-02-23T12:01:59;8.55;98.84
80290;SHT30;69592;44.804;-0.550;2024-02-23T12:04:26;8.09;98.83
80290;SHT30;69592;44.804;-0.550;2024-02-23T12:06:54;8.26;98.93
80290;SHT30;69592;44.804;-0.550;2024-02-23T12:09:19;8.58;98.93
80290;SHT30;69592;44.804;-0.550;2024-02-23T12:11:45;8.63;98.95
80290;SHT30;69592;44.804;-0.550;2024-02-23T12:14:10;8.39;98.89
80290;SHT30;69592;44.804;-0.550;2024-02-23T12:16:36;8.48;98.93
80290;SHT30;69592;44.804;-0.550;2024-02-23T12:19:02;8.42;98.95
80290;SHT30;69592;44.804;-0.550;2024-02-23T12:21:30;8.32;98.91
80290;SHT30;69592;44.804;-0.550;2024-02-23T12:23:55;8.17;98.84
80290;SHT30;69592;44.804;-0.550;2024-02-23T12:26:21;8.28;98.83
80290;SHT30;69592;44.804;-0.550;2024-02-23T12:28:46;7.98;98.71
80290;SHT30;69592;44.804;-0.550;2024-02-23T12:31:12;8.11;98.44
80290;SHT30;69592;44.804;-0.550;2024-02-23T12:33:39;8.36;97.67
80290;SHT30;69592;44.804;-0.550;2024-02-23T12:36:13;8.58;96.89
80290;SHT30;69592;44.804;-0.550;2024-02-23T12:38:38;8.62;95.50
80290;SHT30;69592;44.804;-0.550;2024-02-23T12:41:04;8.80;94.43
80290;SHT30;69592;44.804;-0.550;2024-02-23T12:43:29;9.00;93.64
80290;SHT30;69592;44.804;-0.550;2024-02-23T12:45:56;9.27;94.49
80290;SHT30;69592;44.804;-0.550;2024-02-23T12:48:21;9.42;93.85
80290;SHT30;69592;44.804;-0.550;2024-02-23T12:50:48;9.54;92.59
80290;SHT30;69592;44.804;-0.550;2024-02-23T12:53:36;9.65;92.07
80290;SHT30;69592;44.804;-0.550;2024-02-23T12:58:41;9.91;90.38
80290;SHT30;69592;44.804;-0.550;2024-02-23T13:01:07;9.95;88.87
80290;SHT30;69592;44.804;-0.550;2024-02-23T13:03:33;9.95;87.52
80290;SHT30;69592;44.804;-0.550;2024-02-23T13:05:59;9.98;87.41
80290;SHT30;69592;44.804;-0.550;2024-02-23T13:08:25;10.01;87.55
80290;SHT30;69592;44.804;-0.550;2024-02-23T13:10:51;10.01;86.86
80290;SHT30;69592;44.804;-0.550;2024-02-23T13:13:18;10.28;87.28
80290;SHT30;69592;44.804;-0.550;2024-02-23T13:15:48;10.47;87.29
80290;SHT30;69592;44.804;-0.550;2024-02-23T13:18:14;10.53;87.28
80290;SHT30;69592;44.804;-0.550;2024-02-23T13:20:41;10.63;87.31
80290;SHT30;69592;44.804;-0.550;2024-02-23T13:23:07;10.67;86.94
80290;SHT30;69592;44.804;-0.550;2024-02-23T13:25:36;10.78;87.71
80290;SHT30;69592;44.804;-0.550;2024-02-23T13:28:02;10.80;87.05
80290;SHT30;69592;44.804;-0.550;2024-02-23T13:30:27;10.68;87.01
80290;SHT30;69592;44.804;-0.550;2024-02-23T13:32:53;10.60;86.92
80290;SHT30;69592;44.804;-0.550;2024-02-23T13:35:18;10.43;86.92
80290;SHT30;69592;44.804;-0.550;2024-02-23T13:37:44;10.23;86.16
80290;SHT30;69592;44.804;-0.550;2024-02-23T13:40:10;10.22;87.06
80290;SHT30;69592;44.804;-0.550;2024-02-23T13:42:37;10.35;87.58
80290;SHT30;69592;44.804;-0.550;2024-02-23T13:45:09;10.46;86.85
80290;SHT30;69592;44.804;-0.550;2024-02-23T13:47:35;10.49;86.80
80290;SHT30;69592;44.804;-0.550;2024-02-23T13:50:01;10.54;87.46
80290;SHT30;69592;44.804;-0.550;2024-02-23T13:52:26;10.25;87.72
80290;SHT30;69592;44.804;-0.550;2024-02-23T13:54:58;10.33;88.01
80290;SHT30;69592;44.804;-0.550;2024-02-23T13:57:23;10.37;87.16
80290;SHT30;69592;44.804;-0.550;2024-02-23T13:59:49;10.33;86.51
80290;SHT30;69592;44.804;-0.550;2024-02-23T14:02:14;10.29;86.63
80290;SHT30;69592;44.804;-0.550;2024-02-23T14:04:40;10.29;86.50
80290;SHT30;69592;44.804;-0.550;2024-02-23T14:07:07;10.26;86.84
80290;SHT30;69592;44.804;-0.550;2024-02-23T14:09:32;10.12;87.04
80290;SHT30;69592;44.804;-0.550;2024-02-23T14:11:57;9.98;87.73
80290;SHT30;69592;44.804;-0.550;2024-02-23T14:14:23;9.98;88.05
80290;SHT30;69592;44.804;-0.550;2024-02-23T14:16:49;9.81;88.05
80290;SHT30;69592;44.804;-0.550;2024-02-23T14:19:14;9.82;88.34
80290;SHT30;69592;44.804;-0.550;2024-02-23T14:21:39;10.01;88.01
80290;SHT30;69592;44.804;-0.550;2024-02-23T14:24:06;9.86;87.96
80290;SHT30;69592;44.804;-0.550;2024-02-23T14:26:32;9.72;87.73
80290;SHT30;69592;44.804;-0.550;2024-02-23T14:28:58;9.67;87.82
80290;SHT30;69592;44.804;-0.550;2024-02-23T14:31:24;9.71;88.26
80290;SHT30;69592;44.804;-0.550;2024-02-23T14:33:49;9.59;88.11
80290;SHT30;69592;44.804;-0.550;2024-02-23T14:36:16;9.48;88.39
80290;SHT30;69592;44.804;-0.550;2024-02-23T14:38:42;9.50;88.11
80290;SHT30;69592;44.804;-0.550;2024-02-23T14:41:07;9.34;87.58
80290;SHT30;69592;44.804;-0.550;2024-02-23T14:43:34;9.26;87.96
80290;SHT30;69592;44.804;-0.550;2024-02-23T14:45:59;9.27;88.09
80290;SHT30;69592;44.804;-0.550;2024-02-23T14:48:25;9.27;88.52
80290;SHT30;69592;44.804;-0.550;2024-02-23T14:50:50;9.27;88.02
80290;SHT30;69592;44.804;-0.550;2024-02-23T14:53:16;9.26;88.31
80290;SHT30;69592;44.804;-0.550;2024-02-23T14:55:42;9.24;88.17
80290;SHT30;69592;44.804;-0.550;2024-02-23T14:58:07;9.17;88.46
80290;SHT30;69592;44.804;-0.550;2024-02-23T15:00:33;9.07;88.54
80290;SHT30;69592;44.804;-0.550;2024-02-23T15:02:59;8.94;88.69
80290;SHT30;69592;44.804;-0.550;2024-02-23T15:05:24;8.97;88.86
80290;SHT30;69592;44.804;-0.550;2024-02-23T15:07:50;9.01;88.64
80290;SHT30;69592;44.804;-0.550;2024-02-23T15:10:15;9.14;88.77
80290;SHT30;69592;44.804;-0.550;2024-02-23T15:12:40;9.10;88.78
80290;SHT30;69592;44.804;-0.550;2024-02-23T15:15:06;9.03;88.96
80290;SHT30;69592;44.804;-0.550;2024-02-23T15:17:32;9.14;89.13
80290;SHT30;69592;44.804;-0.550;2024-02-23T15:19:58;8.44;94.99
80290;SHT30;69592;44.804;-0.550;2024-02-23T15:22:23;6.20;98.34
80290;SHT30;69592;44.804;-0.550;2024-02-23T15:24:50;6.41;98.60